createdAt,value
2023-02-17T00:02:19.412Z,2.20
2023-02-17T00:04:46.088Z,2.45
2023-02-17T00:07:12.748Z,2.50
2023-02-17T00:09:39.490Z,2.40
2023-02-17T00:12:06.436Z,2.38
2023-02-17T00:14:33.165Z,2.40
2023-02-17T00:16:59.835Z,2.03
2023-02-17T00:19:26.576Z,2.67
2023-02-17T00:22:01.355Z,2.20
2023-02-17T00:26:56.085Z,2.28
2023-02-17T00:29:23.260Z,2.38
2023-02-17T00:31:52.111Z,2.90
2023-02-17T00:34:19.013Z,2.53
2023-02-17T00:36:45.892Z,2.30
2023-02-17T00:39:17.171Z,2.13
2023-02-17T00:41:44.122Z,2.13
2023-02-17T00:44:18.210Z,2.28
2023-02-17T00:46:46.347Z,2.03
2023-02-17T00:49:16.937Z,1.98
2023-02-17T00:51:44.507Z,2.15
2023-02-17T00:54:11.639Z,2.47
2023-02-17T00:56:38.618Z,2.60
2023-02-17T00:59:05.808Z,2.30
2023-02-17T01:01:33.161Z,2.05
2023-02-17T01:04:00.381Z,2.30
2023-02-17T01:06:33.166Z,2.30
2023-02-17T01:09:00.227Z,2.35
2023-02-17T01:11:29.755Z,2.00
2023-02-17T01:13:56.810Z,1.90
2023-02-17T01:16:45.924Z,2.03
2023-02-17T01:19:14.573Z,2.20
2023-02-17T01:21:41.438Z,2.20
2023-02-17T01:24:08.935Z,2.70
2023-02-17T01:26:36.726Z,2.55
2023-02-17T01:29:04.813Z,1.90
2023-02-17T01:31:31.622Z,2.15
2023-02-17T01:34:01.255Z,2.40
2023-02-17T01:36:28.324Z,2.40
2023-02-17T01:38:55.085Z,2.10
2023-02-17T01:41:23.582Z,2.35
2023-02-17T01:44:13.322Z,2.10
2023-02-17T01:46:42.022Z,2.25
2023-02-17T01:49:35.991Z,2.30
2023-02-17T01:52:16.339Z,2.22
2023-02-17T01:54:52.696Z,2.13
2023-02-17T01:57:22.317Z,2.42
2023-02-17T01:59:49.371Z,2.20
2023-02-17T02:02:16.199Z,2.20
2023-02-17T02:04:45.339Z,2.55
2023-02-17T02:07:16.550Z,2.10
2023-02-17T02:09:50.875Z,2.28
2023-02-17T02:12:23.295Z,2.63
2023-02-17T02:14:51.188Z,2.85
2023-02-17T02:17:35.614Z,2.50
2023-02-17T02:20:38.432Z,2.92
2023-02-17T02:23:35.844Z,2.40
2023-02-17T02:26:50.916Z,2.88
2023-02-17T02:29:44.816Z,2.92
2023-02-17T02:32:30.501Z,2.67
2023-02-17T02:35:34.505Z,3.03
2023-02-17T02:38:18.377Z,2.80
2023-02-17T02:40:50.405Z,2.67
2023-02-17T02:43:17.564Z,2.47
2023-02-17T02:45:44.391Z,2.90
2023-02-17T02:48:11.253Z,2.58
2023-02-17T02:51:02.727Z,2.85
2023-02-17T02:54:02.226Z,3.13
2023-02-17T02:56:49.355Z,3.40
2023-02-17T02:59:47.955Z,3.50
2023-02-17T03:02:29.696Z,2.90
2023-02-17T03:04:59.014Z,3.15
2023-02-17T03:07:35.297Z,3.03
2023-02-17T03:10:02.355Z,3.42
2023-02-17T03:12:30.686Z,3.40
2023-02-17T03:15:06.519Z,3.00
2023-02-17T03:17:33.526Z,3.15
2023-02-17T03:20:05.244Z,2.75
2023-02-17T03:22:35.701Z,2.55
2023-02-17T03:25:02.803Z,2.78
2023-02-17T03:27:29.668Z,3.33
2023-02-17T03:29:56.387Z,3.30
2023-02-17T03:32:23.148Z,5.22
2023-02-17T03:34:49.880Z,4.07
2023-02-17T03:37:17.040Z,4.53
2023-02-17T03:39:43.774Z,4.50
2023-02-17T03:42:10.745Z,6.28
2023-02-17T03:44:37.419Z,4.88
2023-02-17T03:47:04.339Z,6.85
2023-02-17T03:49:31.086Z,4.03
2023-02-17T03:51:59.372Z,5.00
2023-02-17T03:54:26.900Z,4.35
2023-02-17T03:56:53.671Z,3.63
2023-02-17T03:59:20.357Z,2.65
2023-02-17T04:01:47.028Z,2.70
2023-02-17T04:04:13.906Z,2.95
2023-02-17T04:06:40.631Z,2.50
2023-02-17T04:09:07.514Z,2.30
2023-02-17T04:11:34.226Z,2.00
2023-02-17T04:14:00.888Z,2.00
2023-02-17T04:16:27.739Z,2.10
2023-02-17T04:18:54.418Z,2.00
2023-02-17T04:21:21.256Z,1.90
2023-02-17T04:23:47.914Z,1.85
2023-02-17T04:26:14.611Z,2.20
2023-02-17T04:28:42.512Z,1.77
2023-02-17T04:31:09.801Z,2.30
2023-02-17T04:33:37.898Z,1.77
2023-02-17T04:36:05.420Z,2.20
2023-02-17T04:38:32.944Z,2.28
2023-02-17T04:41:00.170Z,2.10
2023-02-17T04:43:28.177Z,2.00
2023-02-17T04:45:55.083Z,2.30
2023-02-17T04:48:22.005Z,2.30
2023-02-17T04:50:48.657Z,2.60
2023-02-17T04:53:15.363Z,2.08
2023-02-17T04:55:42.571Z,2.10
2023-02-17T04:58:09.396Z,2.40
2023-02-17T05:00:36.580Z,2.22
2023-02-17T05:03:03.437Z,2.00
2023-02-17T05:05:31.021Z,2.00
2023-02-17T05:07:57.964Z,1.92
2023-02-17T05:10:24.767Z,2.08
2023-02-17T05:12:52.408Z,2.10
2023-02-17T05:15:19.203Z,2.25
2023-02-17T05:17:45.921Z,1.95
2023-02-17T05:20:12.819Z,2.42
2023-02-17T05:22:39.492Z,2.08
2023-02-17T05:25:06.613Z,2.15
2023-02-17T05:27:33.352Z,2.17
2023-02-17T05:30:00.390Z,2.17
2023-02-17T05:32:27.221Z,1.98
2023-02-17T05:34:53.946Z,2.40
2023-02-17T05:37:20.641Z,2.40
2023-02-17T05:39:47.360Z,2.10
2023-02-17T05:42:14.202Z,2.17
2023-02-17T05:44:40.906Z,2.60
2023-02-17T05:47:07.898Z,2.75
2023-02-17T05:49:34.588Z,2.75
2023-02-17T05:52:01.686Z,2.75
2023-02-17T05:54:28.331Z,2.30
2023-02-17T05:56:54.976Z,2.92
2023-02-17T05:59:21.802Z,2.50
2023-02-17T06:01:48.625Z,2.72
2023-02-17T06:04:15.341Z,3.20
2023-02-17T06:06:42.261Z,2.80
2023-02-17T06:09:08.974Z,3.05
2023-02-17T06:11:35.633Z,3.03
2023-02-17T06:14:02.288Z,2.75
2023-02-17T06:16:29.070Z,3.00
2023-02-17T06:18:55.791Z,2.70
2023-02-17T06:21:22.649Z,2.70
2023-02-17T06:23:49.288Z,2.53
2023-02-17T06:26:18.490Z,2.72
2023-02-17T06:28:45.522Z,2.40
2023-02-17T06:31:12.534Z,2.25
2023-02-17T06:33:39.253Z,2.38
2023-02-17T06:36:06.680Z,2.50
2023-02-17T06:38:33.546Z,4.38
2023-02-17T06:41:00.251Z,3.08
2023-02-17T06:43:26.945Z,2.10
2023-02-17T06:45:53.884Z,2.47
2023-02-17T06:48:20.580Z,2.00
2023-02-17T06:50:49.324Z,1.80
2023-02-17T06:53:15.966Z,1.88
2023-02-17T06:55:44.271Z,1.90
2023-02-17T06:58:10.997Z,1.90
2023-02-17T07:00:37.681Z,1.85
2023-02-17T07:03:04.444Z,1.70
2023-02-17T07:05:31.222Z,1.65
2023-02-17T07:07:58.729Z,1.58
2023-02-17T07:10:25.658Z,1.60
2023-02-17T07:12:52.418Z,1.48
2023-02-17T07:15:19.166Z,1.45
2023-02-17T07:17:45.842Z,1.38
2023-02-17T07:20:12.736Z,1.35
2023-02-17T07:22:39.840Z,1.25
2023-02-17T07:25:07.260Z,1.52
2023-02-17T07:27:36.385Z,1.30
2023-02-17T07:30:03.624Z,1.20
2023-02-17T07:32:30.442Z,1.00
2023-02-17T07:34:57.227Z,1.10
2023-02-17T07:37:23.884Z,1.00
2023-02-17T07:39:52.268Z,1.00
2023-02-17T07:42:18.908Z,1.00
2023-02-17T07:44:45.557Z,1.00
2023-02-17T07:47:12.234Z,1.02
2023-02-17T07:49:38.884Z,1.13
2023-02-17T07:52:05.880Z,0.90
2023-02-17T07:54:32.604Z,1.00
2023-02-17T07:56:59.978Z,1.17
2023-02-17T07:59:26.709Z,0.90
2023-02-17T08:01:53.625Z,1.15
2023-02-17T08:04:20.438Z,0.73
2023-02-17T08:06:47.159Z,0.98
2023-02-17T08:09:32.319Z,0.90
2023-02-17T08:14:44.577Z,0.98
2023-02-17T08:17:11.313Z,1.10
2023-02-17T08:19:53.313Z,1.00
2023-02-17T08:22:20.071Z,0.90
2023-02-17T08:24:47.070Z,0.88
2023-02-17T08:27:15.417Z,1.10
2023-02-17T08:29:42.289Z,0.93
2023-02-17T08:32:09.438Z,0.85
2023-02-17T08:34:36.558Z,1.08
2023-02-17T08:37:04.557Z,1.15
2023-02-17T08:39:31.385Z,1.10
2023-02-17T08:41:58.083Z,0.90
2023-02-17T08:44:25.253Z,1.40
2023-02-17T08:46:52.444Z,0.90
2023-02-17T08:49:22.232Z,1.10
2023-02-17T08:51:50.243Z,0.93
2023-02-17T08:54:17.882Z,1.00
2023-02-17T08:56:45.440Z,1.00
2023-02-17T08:59:12.792Z,0.90
2023-02-17T09:01:40.726Z,0.80
2023-02-17T09:04:09.817Z,0.80
2023-02-17T09:06:39.010Z,0.93
2023-02-17T09:09:08.274Z,0.90
2023-02-17T09:11:35.296Z,1.15
2023-02-17T09:14:02.562Z,0.77
2023-02-17T09:16:29.391Z,0.60
2023-02-17T09:18:56.159Z,0.80
2023-02-17T09:21:22.883Z,0.80
2023-02-17T09:23:50.057Z,0.82
2023-02-17T09:26:17.813Z,0.82
2023-02-17T09:28:44.672Z,0.75
2023-02-17T09:31:13.969Z,0.70
2023-02-17T09:33:41.860Z,0.80
2023-02-17T09:36:10.569Z,0.50
2023-02-17T09:38:38.486Z,0.63
2023-02-17T09:41:22.482Z,0.60
2023-02-17T09:43:50.615Z,0.45
2023-02-17T09:46:36.223Z,0.50
2023-02-17T09:49:18.231Z,0.50
2023-02-17T09:52:06.140Z,0.40
2023-02-17T09:54:41.255Z,0.60
2023-02-17T09:57:15.865Z,0.50
2023-02-17T09:59:46.483Z,0.60
2023-02-17T10:02:19.720Z,0.50
2023-02-17T10:04:48.267Z,0.75
2023-02-17T10:07:19.959Z,0.60
2023-02-17T10:09:49.516Z,0.60
2023-02-17T10:12:21.646Z,0.40
2023-02-17T10:14:59.424Z,0.52
2023-02-17T10:17:34.165Z,0.57
2023-02-17T10:22:32.627Z,0.70
2023-02-17T10:25:01.106Z,0.70
2023-02-17T10:27:41.609Z,0.63
2023-02-17T10:30:27.180Z,0.60
2023-02-17T10:32:58.040Z,0.70
2023-02-17T10:35:40.598Z,0.60
2023-02-17T10:38:49.716Z,0.50
2023-02-17T10:41:20.799Z,0.55
2023-02-17T10:43:48.545Z,0.52
2023-02-17T10:46:17.135Z,0.70
2023-02-17T10:48:51.310Z,0.40
2023-02-17T10:51:22.635Z,0.90
2023-02-17T10:53:55.269Z,0.68
2023-02-17T10:56:26.377Z,0.65
2023-02-17T10:59:02.936Z,0.60
2023-02-17T11:01:29.636Z,0.57
2023-02-17T11:04:08.500Z,0.80
2023-02-17T11:06:52.887Z,0.50
2023-02-17T11:09:21.245Z,0.50
2023-02-17T11:12:10.282Z,0.60
2023-02-17T11:14:37.626Z,0.57
2023-02-17T11:17:16.273Z,0.47
2023-02-17T11:19:42.989Z,0.70
2023-02-17T11:22:40.997Z,0.60
2023-02-17T11:25:22.025Z,0.60
2023-02-17T11:27:53.204Z,0.45
2023-02-17T11:30:21.005Z,0.55
2023-02-17T11:32:48.244Z,0.77
2023-02-17T11:35:24.160Z,0.60
2023-02-17T11:38:01.336Z,0.88
2023-02-17T11:40:30.601Z,0.90
2023-02-17T11:43:02.051Z,0.75
2023-02-17T11:45:39.230Z,0.98
2023-02-17T11:48:31.466Z,0.63
2023-02-17T11:51:08.655Z,0.90
2023-02-17T11:53:53.752Z,0.80
2023-02-17T11:59:03.325Z,0.63
2023-02-17T12:01:35.847Z,0.60
2023-02-17T12:04:31.570Z,1.42
2023-02-17T12:07:52.129Z,0.50
2023-02-17T12:10:34.364Z,0.60
2023-02-17T12:13:15.493Z,0.60
2023-02-17T12:16:02.319Z,0.57
2023-02-17T12:18:47.198Z,0.52
2023-02-17T12:21:32.451Z,0.50
2023-02-17T12:24:18.806Z,0.70
2023-02-17T12:26:48.473Z,0.40
2023-02-17T12:29:21.236Z,0.75
2023-02-17T12:32:18.811Z,0.40
2023-02-17T12:34:59.259Z,0.57
2023-02-17T12:37:33.023Z,0.60
2023-02-17T12:40:15.200Z,0.70
2023-02-17T12:42:46.666Z,0.70
2023-02-17T12:45:13.375Z,0.40
2023-02-17T12:48:01.697Z,0.60
2023-02-17T12:50:54.419Z,0.68
2023-02-17T12:53:44.158Z,0.68
2023-02-17T12:56:22.820Z,0.60
2023-02-17T12:58:50.035Z,0.63
2023-02-17T13:01:19.818Z,0.68
2023-02-17T13:03:46.708Z,0.60
2023-02-17T13:06:39.670Z,0.65
2023-02-17T13:09:24.856Z,0.50
2023-02-17T13:11:51.541Z,0.60
2023-02-17T13:14:29.902Z,0.85
2023-02-17T13:16:56.930Z,0.68
2023-02-17T13:19:32.864Z,0.70
2023-02-17T13:22:02.218Z,0.80
2023-02-17T13:24:33.650Z,0.80
2023-02-17T13:27:20.722Z,0.90
2023-02-17T13:29:58.166Z,1.33
2023-02-17T13:32:29.301Z,1.13
2023-02-17T13:35:36.527Z,0.80
2023-02-17T13:38:04.299Z,0.90
2023-02-17T13:40:36.131Z,0.80
2023-02-17T13:43:19.427Z,1.10
2023-02-17T13:46:15.444Z,0.90
2023-02-17T13:48:42.168Z,0.80
2023-02-17T13:51:25.381Z,0.65
2023-02-17T13:53:52.177Z,0.82
2023-02-17T13:56:30.030Z,0.70
2023-02-17T13:59:18.207Z,0.75
2023-02-17T14:01:46.086Z,0.90
2023-02-17T14:04:23.605Z,0.90
2023-02-17T14:06:50.715Z,0.60
2023-02-17T14:09:30.763Z,0.88
2023-02-17T14:11:58.466Z,0.60
2023-02-17T14:14:29.841Z,0.70
2023-02-17T14:16:59.410Z,0.80
2023-02-17T14:19:26.076Z,0.57
2023-02-17T14:22:04.717Z,0.55
2023-02-17T14:24:33.151Z,0.90
2023-02-17T14:27:02.348Z,0.50
2023-02-17T14:29:48.114Z,0.50
2023-02-17T14:32:35.913Z,0.75
2023-02-17T14:35:15.423Z,0.80
2023-02-17T14:37:42.545Z,0.77
2023-02-17T14:40:23.247Z,0.90
2023-02-17T14:42:50.529Z,0.68
2023-02-17T14:45:19.540Z,0.70
2023-02-17T14:47:46.691Z,0.70
2023-02-17T14:50:13.679Z,0.70
2023-02-17T14:52:44.092Z,0.75
2023-02-17T14:55:16.568Z,0.73
2023-02-17T14:57:45.046Z,0.90
2023-02-17T15:00:14.239Z,0.75
2023-02-17T15:02:41.084Z,0.68
2023-02-17T15:05:08.030Z,0.80
2023-02-17T15:07:35.137Z,0.70
2023-02-17T15:10:02.011Z,0.55
2023-02-17T15:12:28.788Z,0.80
2023-02-17T15:14:55.610Z,0.70
2023-02-17T15:17:22.317Z,1.00
2023-02-17T15:19:49.349Z,0.70
2023-02-17T15:22:16.080Z,0.60
2023-02-17T15:24:42.789Z,0.90
2023-02-17T15:27:15.462Z,0.80
2023-02-17T15:29:42.177Z,0.70
2023-02-17T15:32:19.023Z,0.70
2023-02-17T15:34:46.095Z,1.17
2023-02-17T15:37:12.808Z,0.60
2023-02-17T15:39:39.559Z,0.73
2023-02-17T15:42:12.510Z,0.90
2023-02-17T15:44:57.555Z,0.75
2023-02-17T15:49:50.824Z,0.90
2023-02-17T15:52:17.614Z,0.60
2023-02-17T15:54:45.053Z,1.00
2023-02-17T15:57:22.475Z,0.82
2023-02-17T15:59:49.471Z,0.95
2023-02-17T16:02:22.619Z,0.90
2023-02-17T16:04:50.082Z,0.80
2023-02-17T16:07:19.396Z,1.10
2023-02-17T16:09:52.240Z,1.00
2023-02-17T16:12:26.628Z,0.82
2023-02-17T16:14:54.948Z,1.08
2023-02-17T16:17:22.792Z,1.00
2023-02-17T16:19:49.489Z,0.75
2023-02-17T16:22:22.502Z,0.98
2023-02-17T16:24:49.198Z,0.80
2023-02-17T16:27:17.762Z,0.98
2023-02-17T16:29:47.760Z,1.15
2023-02-17T16:32:14.939Z,1.05
2023-02-17T16:34:42.716Z,1.00
2023-02-17T16:37:15.476Z,0.90
2023-02-17T16:39:42.635Z,1.38
2023-02-17T16:42:14.645Z,1.10
2023-02-17T16:44:41.676Z,1.60
2023-02-17T16:47:18.509Z,1.35
2023-02-17T16:49:47.079Z,1.17
2023-02-17T16:52:27.386Z,1.38
2023-02-17T16:54:54.376Z,1.25
2023-02-17T16:57:21.192Z,1.48
2023-02-17T16:59:48.118Z,1.50
2023-02-17T17:02:15.002Z,1.40
2023-02-17T17:04:41.769Z,1.55
2023-02-17T17:07:12.425Z,1.50
2023-02-17T17:09:39.215Z,1.73
2023-02-17T17:12:11.427Z,1.80
2023-02-17T17:14:38.145Z,1.60
2023-02-17T17:17:04.874Z,1.90
2023-02-17T17:19:31.581Z,1.73
2023-02-17T17:21:58.286Z,1.90
2023-02-17T17:24:25.017Z,1.83
2023-02-17T17:26:51.905Z,1.90
2023-02-17T17:29:19.876Z,1.65
2023-02-17T17:31:46.952Z,1.60
2023-02-17T17:34:13.810Z,1.48
2023-02-17T17:36:43.030Z,1.77
2023-02-17T17:39:16.704Z,1.30
2023-02-17T17:41:43.532Z,1.30
2023-02-17T17:44:10.621Z,1.90
2023-02-17T17:46:38.548Z,1.30
2023-02-17T17:49:06.619Z,1.67
2023-02-17T17:51:33.908Z,1.30
2023-02-17T17:54:00.653Z,1.80
2023-02-17T17:56:33.682Z,1.02
2023-02-17T17:59:01.523Z,1.40
2023-02-17T18:01:28.536Z,1.20
2023-02-17T18:03:57.281Z,1.10
2023-02-17T18:06:46.035Z,1.20
2023-02-17T18:09:30.265Z,1.48
2023-02-17T18:12:00.353Z,1.20
2023-02-17T18:14:27.336Z,1.50
2023-02-17T18:16:54.079Z,1.08
2023-02-17T18:19:20.915Z,1.20
2023-02-17T18:21:48.014Z,1.33
2023-02-17T18:24:15.137Z,1.30
2023-02-17T18:26:42.012Z,1.40
2023-02-17T18:29:08.696Z,1.27
2023-02-17T18:31:35.647Z,1.23
2023-02-17T18:34:02.427Z,1.63
2023-02-17T18:36:29.225Z,1.40
2023-02-17T18:38:55.945Z,1.42
2023-02-17T18:41:25.762Z,1.77
2023-02-17T18:43:52.690Z,1.60
2023-02-17T18:46:19.513Z,1.83
2023-02-17T18:48:46.272Z,1.73
2023-02-17T18:51:15.149Z,2.00
2023-02-17T18:53:53.368Z,1.95
2023-02-17T18:56:29.009Z,1.83
2023-02-17T18:58:56.489Z,2.10
2023-02-17T19:01:29.413Z,2.28
2023-02-17T19:03:56.820Z,2.10
2023-02-17T19:06:25.868Z,2.47
2023-02-17T19:08:52.650Z,3.03
2023-02-17T19:11:20.739Z,3.08
2023-02-17T19:13:47.825Z,3.53
2023-02-17T19:16:17.045Z,3.15
2023-02-17T19:18:44.866Z,3.17
2023-02-17T19:21:12.004Z,4.22
2023-02-17T19:23:40.495Z,3.80
2023-02-17T19:26:08.973Z,4.00
2023-02-17T19:28:37.024Z,4.00
2023-02-17T19:31:12.840Z,4.00
2023-02-17T19:33:39.608Z,4.50
2023-02-17T19:36:08.365Z,4.45
2023-02-17T19:38:36.131Z,4.07
2023-02-17T19:41:04.682Z,4.68
2023-02-17T19:43:31.578Z,4.00
2023-02-17T19:45:58.729Z,3.95
2023-02-17T19:48:25.581Z,3.65
2023-02-17T19:50:53.163Z,2.30
2023-02-17T19:53:19.831Z,2.30
2023-02-17T19:55:46.574Z,2.30
2023-02-17T19:58:13.350Z,2.10
2023-02-17T20:00:40.088Z,2.00
2023-02-17T20:03:06.821Z,1.90
2023-02-17T20:05:41.578Z,2.22
2023-02-17T20:10:40.915Z,2.20
2023-02-17T20:13:08.247Z,2.15
2023-02-17T20:15:35.666Z,2.20
2023-02-17T20:18:02.600Z,2.70
2023-02-17T20:20:29.925Z,2.70
2023-02-17T20:22:56.682Z,2.38
2023-02-17T20:25:23.478Z,2.95
2023-02-17T20:27:53.112Z,2.75
2023-02-17T20:30:19.969Z,2.58
2023-02-17T20:32:46.756Z,2.30
2023-02-17T20:35:14.544Z,1.70
2023-02-17T20:37:41.315Z,1.92
2023-02-17T20:40:08.520Z,1.98
2023-02-17T20:42:35.497Z,1.90
2023-02-17T20:45:02.830Z,1.52
2023-02-17T20:47:29.592Z,1.75
2023-02-17T20:49:56.418Z,1.50
2023-02-17T20:52:23.078Z,1.42
2023-02-17T20:54:49.815Z,1.83
2023-02-17T20:57:16.577Z,1.80
2023-02-17T20:59:43.556Z,2.00
2023-02-17T21:02:10.729Z,1.90
2023-02-17T21:04:37.441Z,1.50
2023-02-17T21:07:04.404Z,1.83
2023-02-17T21:09:31.120Z,1.92
2023-02-17T21:11:58.049Z,1.80
2023-02-17T21:14:25.340Z,1.83
2023-02-17T21:16:52.817Z,1.80
2023-02-17T21:19:22.695Z,2.20
2023-02-17T21:21:50.378Z,1.50
2023-02-17T21:24:17.087Z,1.60
2023-02-17T21:26:44.090Z,1.60
2023-02-17T21:29:14.033Z,1.63
2023-02-17T21:31:40.943Z,1.90
2023-02-17T21:34:08.834Z,1.50
2023-02-17T21:36:37.739Z,1.42
2023-02-17T21:39:05.041Z,1.50
2023-02-17T21:41:32.565Z,1.20
2023-02-17T21:44:18.818Z,1.42
2023-02-17T21:46:46.474Z,1.23
2023-02-17T21:49:13.991Z,1.35
2023-02-17T21:51:41.426Z,1.52
2023-02-17T21:54:09.519Z,1.60
2023-02-17T21:56:36.417Z,1.30
2023-02-17T21:59:03.544Z,1.25
2023-02-17T22:01:30.665Z,1.35
2023-02-17T22:03:57.907Z,1.35
2023-02-17T22:06:33.972Z,1.60
2023-02-17T22:09:00.929Z,1.40
2023-02-17T22:11:30.575Z,1.60
2023-02-17T22:13:59.029Z,1.30
2023-02-17T22:16:26.453Z,1.20
2023-02-17T22:18:53.226Z,1.20
2023-02-17T22:21:19.992Z,1.33
2023-02-17T22:23:46.795Z,1.65
2023-02-17T22:26:16.606Z,1.50
2023-02-17T22:28:43.756Z,1.30
2023-02-17T22:31:15.169Z,1.27
2023-02-17T22:33:42.255Z,1.25
2023-02-17T22:36:14.731Z,1.30
2023-02-17T22:38:41.460Z,1.30
2023-02-17T22:41:12.844Z,1.58
2023-02-17T22:43:40.876Z,1.50
2023-02-17T22:46:08.914Z,1.30
2023-02-17T22:48:38.118Z,1.25
2023-02-17T22:51:10.766Z,1.67
2023-02-17T22:53:38.063Z,1.80
2023-02-17T22:56:06.134Z,1.63
2023-02-17T22:58:33.647Z,1.70
2023-02-17T23:01:18.098Z,1.50
2023-02-17T23:03:45.278Z,1.73
2023-02-17T23:06:14.472Z,1.67
2023-02-17T23:08:41.514Z,1.70
2023-02-17T23:11:09.979Z,1.80
2023-02-17T23:13:37.674Z,1.50
2023-02-17T23:16:05.470Z,1.42
2023-02-17T23:18:33.492Z,1.40
2023-02-17T23:21:05.987Z,1.50
2023-02-17T23:23:32.646Z,1.50
2023-02-17T23:25:59.324Z,1.60
2023-02-17T23:28:26.362Z,1.60
2023-02-17T23:30:53.462Z,1.73
2023-02-17T23:33:21.718Z,1.60
2023-02-17T23:35:48.788Z,1.58
2023-02-17T23:38:19.067Z,1.30
2023-02-17T23:40:51.367Z,1.92
2023-02-17T23:43:18.823Z,1.85
2023-02-17T23:45:45.806Z,2.00
2023-02-17T23:48:13.088Z,2.05
2023-02-17T23:50:39.882Z,1.90
2023-02-17T23:53:07.622Z,1.95
2023-02-17T23:55:34.619Z,2.00
2023-02-17T23:58:01.754Z,2.00
